createdAt,value
2019-01-26T00:00:17.380Z,39.70
2019-01-26T00:02:45.656Z,69.27
2019-01-26T00:05:13.940Z,67.10
2019-01-26T00:07:42.226Z,73.47
2019-01-26T00:10:10.481Z,108.70
2019-01-26T00:12:38.766Z,88.97
2019-01-26T00:15:12.968Z,113.73
2019-01-26T00:17:41.245Z,128.33
2019-01-26T00:20:10.041Z,117.23
2019-01-26T00:22:38.331Z,174.10
2019-01-26T00:25:06.648Z,185.00
2019-01-26T00:27:34.929Z,201.60
2019-01-26T00:30:05.337Z,205.93
2019-01-26T00:32:33.675Z,214.40
2019-01-26T00:35:01.923Z,289.97
2019-01-26T00:37:30.207Z,231.90
2019-01-26T00:39:58.470Z,196.60
2019-01-26T00:42:26.754Z,237.00
2019-01-26T00:44:55.043Z,215.70
2019-01-26T00:47:23.329Z,349.80
2019-01-26T00:49:51.606Z,316.77
2019-01-26T00:52:19.867Z,252.93
2019-01-26T00:54:48.203Z,266.03
2019-01-26T00:57:16.458Z,267.10
2019-01-26T00:59:44.742Z,289.83
2019-01-26T01:02:13.053Z,304.53
2019-01-26T01:04:41.360Z,281.93
2019-01-26T01:07:09.655Z,296.60
2019-01-26T01:09:37.946Z,211.80
2019-01-26T01:12:06.242Z,318.63
2019-01-26T01:14:34.559Z,215.80
2019-01-26T01:17:03.201Z,320.60
2019-01-26T01:19:31.485Z,236.30
2019-01-26T01:21:59.764Z,321.67
2019-01-26T01:24:28.027Z,310.13
2019-01-26T01:26:56.461Z,366.60
2019-01-26T01:29:24.748Z,158.17
2019-01-26T01:31:53.002Z,366.30
2019-01-26T01:34:21.281Z,244.53
2019-01-26T01:36:49.586Z,185.33
2019-01-26T01:39:17.875Z,179.07
2019-01-26T01:41:46.130Z,263.90
2019-01-26T01:44:14.421Z,180.10
2019-01-26T01:46:43.076Z,305.13
2019-01-26T01:49:11.575Z,218.23
2019-01-26T01:51:39.856Z,158.13
2019-01-26T01:54:08.813Z,113.93
2019-01-26T01:56:37.072Z,109.07
2019-01-26T01:59:05.405Z,122.70
2019-01-26T02:01:34.617Z,121.20
2019-01-26T02:04:02.874Z,74.50
2019-01-26T02:06:31.172Z,115.17
2019-01-26T02:08:59.463Z,206.87
2019-01-26T02:11:27.737Z,209.50
2019-01-26T02:13:56.000Z,157.30
2019-01-26T02:16:24.444Z,144.07
2019-01-26T02:18:53.517Z,138.67
2019-01-26T02:21:21.768Z,132.70
2019-01-26T02:23:50.090Z,76.07
2019-01-26T02:26:18.363Z,89.30
2019-01-26T02:28:46.649Z,132.73
2019-01-26T02:31:14.917Z,287.33
2019-01-26T02:33:43.235Z,203.70
2019-01-26T02:36:11.490Z,157.57
2019-01-26T02:38:39.772Z,80.50
2019-01-26T02:41:08.039Z,181.07
2019-01-26T02:43:36.358Z,175.87
2019-01-26T02:46:04.619Z,153.40
2019-01-26T02:48:32.947Z,300.90
2019-01-26T02:51:01.235Z,455.57
2019-01-26T02:53:29.540Z,196.73
2019-01-26T02:55:57.817Z,213.43
2019-01-26T02:58:26.204Z,157.40
2019-01-26T03:00:54.471Z,89.00
2019-01-26T03:03:22.768Z,142.43
2019-01-26T03:05:51.046Z,98.23
2019-01-26T03:08:19.347Z,59.53
2019-01-26T03:10:47.626Z,72.40
2019-01-26T03:13:15.875Z,80.93
2019-01-26T03:15:44.152Z,44.50
2019-01-26T03:18:12.437Z,53.23
2019-01-26T03:20:40.707Z,45.20
2019-01-26T03:23:09.021Z,35.60
2019-01-26T03:25:37.859Z,52.13
2019-01-26T03:28:06.164Z,42.73
2019-01-26T03:30:34.434Z,59.53
2019-01-26T03:33:04.311Z,46.80
2019-01-26T03:35:32.614Z,56.70
2019-01-26T03:38:00.932Z,90.20
2019-01-26T03:40:29.182Z,53.93
2019-01-26T03:42:57.589Z,54.40
2019-01-26T03:45:25.858Z,58.87
2019-01-26T03:47:54.119Z,183.87
2019-01-26T03:50:22.426Z,66.00
2019-01-26T03:52:50.725Z,53.87
2019-01-26T03:55:21.136Z,102.00
2019-01-26T03:57:49.753Z,50.93
2019-01-26T04:00:21.333Z,32.37
2019-01-26T04:02:49.584Z,34.37
2019-01-26T04:05:18.632Z,51.87
2019-01-26T04:07:47.051Z,40.63
2019-01-26T04:10:15.795Z,51.47
2019-01-26T04:12:44.058Z,45.90
2019-01-26T04:15:14.454Z,47.63
2019-01-26T04:17:42.844Z,30.93
2019-01-26T04:20:14.033Z,59.67
2019-01-26T04:22:42.401Z,43.53
2019-01-26T04:25:12.331Z,48.20
2019-01-26T04:27:40.641Z,40.73
2019-01-26T04:30:14.827Z,43.57
2019-01-26T04:32:43.140Z,47.43
2019-01-26T04:35:11.833Z,40.03
2019-01-26T04:37:40.113Z,52.83
2019-01-26T04:40:11.029Z,56.57
2019-01-26T04:42:39.382Z,40.40
2019-01-26T04:45:13.318Z,49.60
2019-01-26T04:47:41.598Z,37.40
2019-01-26T04:50:12.500Z,44.87
2019-01-26T04:52:40.816Z,37.07
2019-01-26T04:55:09.083Z,38.50
2019-01-26T04:57:37.630Z,42.07
2019-01-26T05:00:09.373Z,46.27
2019-01-26T05:02:37.629Z,37.40
2019-01-26T05:05:05.916Z,35.27
2019-01-26T05:07:34.219Z,48.30
2019-01-26T05:10:02.494Z,45.40
2019-01-26T05:12:30.755Z,38.90
2019-01-26T05:14:59.112Z,34.27
2019-01-26T05:17:27.411Z,37.17
2019-01-26T05:19:55.694Z,44.50
2019-01-26T05:22:23.951Z,37.27
2019-01-26T05:24:52.234Z,40.87
2019-01-26T05:27:20.862Z,48.63
2019-01-26T05:29:49.132Z,48.10
2019-01-26T05:32:17.386Z,40.33
2019-01-26T05:34:45.689Z,66.30
2019-01-26T05:37:13.950Z,41.90
2019-01-26T05:39:42.207Z,44.77
2019-01-26T05:42:10.490Z,53.23
2019-01-26T05:44:38.746Z,42.83
2019-01-26T05:47:07.021Z,48.63
2019-01-26T05:49:35.283Z,44.90
2019-01-26T05:52:03.621Z,41.03
2019-01-26T05:54:31.899Z,50.77
2019-01-26T05:57:00.155Z,53.33
2019-01-26T05:59:28.487Z,54.33
2019-01-26T06:01:56.736Z,65.63
2019-01-26T06:04:25.064Z,49.70
2019-01-26T06:06:53.340Z,59.37
2019-01-26T06:09:21.682Z,55.77
2019-01-26T06:11:49.977Z,38.43
2019-01-26T06:14:18.299Z,36.93
2019-01-26T06:16:46.912Z,46.13
2019-01-26T06:19:15.163Z,46.53
2019-01-26T06:21:43.481Z,43.17
2019-01-26T06:24:11.885Z,52.40
2019-01-26T06:26:40.176Z,46.20
2019-01-26T06:29:08.429Z,56.13
2019-01-26T06:31:36.707Z,54.50
2019-01-26T06:34:04.961Z,65.87
2019-01-26T06:36:33.300Z,47.70
2019-01-26T06:39:01.602Z,53.03
2019-01-26T06:41:30.040Z,49.10
2019-01-26T06:43:58.285Z,47.63
2019-01-26T06:46:26.575Z,61.33
2019-01-26T06:48:56.547Z,67.57
2019-01-26T06:51:24.802Z,53.53
2019-01-26T06:53:53.368Z,66.57
2019-01-26T06:56:21.644Z,59.03
2019-01-26T06:58:49.972Z,79.93
2019-01-26T07:01:18.228Z,60.83
2019-01-26T07:03:46.505Z,88.73
2019-01-26T07:06:18.929Z,61.07
2019-01-26T07:08:47.384Z,65.37
2019-01-26T07:11:15.675Z,50.83
2019-01-26T07:13:44.048Z,61.90
2019-01-26T07:16:13.488Z,55.43
2019-01-26T07:18:41.784Z,62.23
2019-01-26T07:21:10.060Z,60.77
2019-01-26T07:23:38.318Z,52.70
2019-01-26T07:26:06.626Z,60.53
2019-01-26T07:28:34.931Z,46.20
2019-01-26T07:31:03.216Z,48.43
2019-01-26T07:33:31.492Z,56.73
2019-01-26T07:35:59.784Z,49.50
2019-01-26T07:38:28.087Z,43.37
2019-01-26T07:40:56.335Z,51.47
2019-01-26T07:43:24.663Z,53.73
2019-01-26T07:45:52.921Z,46.47
2019-01-26T07:48:21.193Z,55.13
2019-01-26T07:50:49.512Z,64.87
2019-01-26T07:53:17.826Z,55.70
2019-01-26T07:55:46.120Z,56.40
2019-01-26T07:58:14.397Z,54.20
2019-01-26T08:00:42.775Z,42.37
2019-01-26T08:03:11.199Z,45.60
2019-01-26T08:05:39.448Z,46.30
2019-01-26T08:08:07.705Z,43.53
2019-01-26T08:10:35.992Z,34.87
2019-01-26T08:13:04.282Z,39.70
2019-01-26T08:15:33.406Z,48.07
2019-01-26T08:18:01.666Z,37.03
2019-01-26T08:20:29.944Z,45.07
2019-01-26T08:22:58.201Z,36.07
2019-01-26T08:25:26.479Z,29.30
2019-01-26T08:27:54.779Z,32.73
2019-01-26T08:30:24.732Z,47.47
2019-01-26T08:32:52.988Z,47.13
2019-01-26T08:35:21.275Z,47.70
2019-01-26T08:37:49.603Z,35.73
2019-01-26T08:40:21.734Z,34.83
2019-01-26T08:42:50.047Z,56.03
2019-01-26T08:45:19.070Z,41.73
2019-01-26T08:47:47.528Z,46.10
2019-01-26T08:50:18.685Z,29.50
2019-01-26T08:52:49.215Z,32.30
2019-01-26T08:55:18.295Z,34.00
2019-01-26T08:57:47.086Z,34.57
2019-01-26T09:00:18.664Z,33.53
2019-01-26T09:02:55.493Z,31.30
2019-01-26T09:05:34.685Z,30.83
2019-01-26T09:08:02.973Z,24.43
2019-01-26T09:10:31.287Z,33.60
2019-01-26T09:13:00.173Z,28.10
2019-01-26T09:15:28.448Z,27.73
2019-01-26T09:17:56.699Z,29.37
2019-01-26T09:20:25.023Z,29.17
2019-01-26T09:22:53.260Z,26.20
2019-01-26T09:25:21.543Z,32.27
2019-01-26T09:27:50.072Z,50.10
2019-01-26T09:30:21.913Z,45.13
2019-01-26T09:32:50.205Z,30.10
2019-01-26T09:35:18.572Z,40.57
2019-01-26T09:37:46.836Z,34.30
2019-01-26T09:40:20.367Z,32.57
2019-01-26T09:42:48.644Z,27.50
2019-01-26T09:45:20.930Z,26.93
2019-01-26T09:47:49.267Z,22.27
2019-01-26T09:50:17.870Z,25.83
2019-01-26T09:52:46.146Z,29.40
2019-01-26T09:55:17.125Z,37.23
2019-01-26T09:57:45.405Z,28.40
2019-01-26T10:00:19.012Z,26.97
2019-01-26T10:02:47.283Z,21.30
2019-01-26T10:05:15.545Z,24.30
2019-01-26T10:07:43.867Z,22.20
2019-01-26T10:10:14.328Z,19.43
2019-01-26T10:12:42.574Z,18.20
2019-01-26T10:15:26.969Z,23.03
2019-01-26T10:17:55.285Z,24.63
2019-01-26T10:20:26.512Z,23.07
2019-01-26T10:22:54.867Z,18.53
2019-01-26T10:25:23.147Z,14.53
2019-01-26T10:27:51.404Z,21.63
2019-01-26T10:30:26.942Z,14.53
2019-01-26T10:32:55.196Z,16.47
2019-01-26T10:35:25.277Z,13.73
2019-01-26T10:37:53.519Z,13.97
2019-01-26T10:40:23.412Z,14.73
2019-01-26T10:42:51.685Z,16.50
2019-01-26T10:45:19.947Z,16.20
2019-01-26T10:47:48.260Z,17.50
2019-01-26T10:50:16.513Z,15.00
2019-01-26T10:52:44.821Z,16.57
2019-01-26T10:55:13.184Z,14.10
2019-01-26T10:57:41.440Z,14.97
2019-01-26T11:00:13.015Z,17.97
2019-01-26T11:02:41.336Z,20.60
2019-01-26T11:05:09.935Z,25.50
2019-01-26T11:07:38.194Z,19.83
2019-01-26T11:10:09.774Z,22.93
2019-01-26T11:12:38.019Z,27.67
2019-01-26T11:15:09.351Z,29.13
2019-01-26T11:17:37.604Z,29.90
2019-01-26T11:20:12.099Z,30.07
2019-01-26T11:22:40.355Z,32.70
2019-01-26T11:25:11.173Z,31.77
2019-01-26T11:27:39.461Z,37.33
2019-01-26T11:30:13.255Z,44.17
2019-01-26T11:32:41.505Z,32.30
2019-01-26T11:35:13.058Z,30.90
2019-01-26T11:37:41.334Z,38.17
2019-01-26T11:40:12.519Z,34.90
2019-01-26T11:42:40.838Z,33.27
2019-01-26T11:45:15.254Z,51.47
2019-01-26T11:47:43.562Z,43.67
2019-01-26T11:50:13.454Z,44.73
2019-01-26T11:52:42.018Z,38.90
2019-01-26T11:55:14.765Z,44.07
2019-01-26T11:57:43.018Z,47.10
2019-01-26T12:00:25.063Z,37.83
2019-01-26T12:02:54.981Z,34.67
2019-01-26T12:05:24.873Z,39.63
2019-01-26T12:07:53.161Z,49.47
2019-01-26T12:10:21.438Z,41.60
2019-01-26T12:12:49.734Z,31.97
2019-01-26T12:15:18.007Z,34.53
2019-01-26T12:17:46.298Z,42.83
2019-01-26T12:20:16.613Z,39.53
2019-01-26T12:22:44.902Z,37.23
2019-01-26T12:25:13.208Z,38.53
2019-01-26T12:27:41.454Z,37.50
2019-01-26T12:30:14.674Z,37.20
2019-01-26T12:32:42.901Z,43.43
2019-01-26T12:35:14.599Z,41.57
2019-01-26T12:37:43.822Z,38.50
2019-01-26T12:40:14.092Z,50.73
2019-01-26T12:42:42.340Z,39.37
2019-01-26T12:45:16.542Z,34.43
2019-01-26T12:47:44.821Z,48.53
2019-01-26T12:50:13.660Z,39.63
2019-01-26T12:52:42.462Z,45.33
2019-01-26T12:55:13.938Z,60.03
2019-01-26T12:57:42.222Z,50.73
2019-01-26T13:00:13.986Z,63.03
2019-01-26T13:02:42.315Z,48.40
2019-01-26T13:05:10.560Z,47.20
2019-01-26T13:07:38.886Z,57.77
2019-01-26T13:10:22.546Z,39.20
2019-01-26T13:12:50.989Z,53.60
2019-01-26T13:15:19.287Z,59.53
2019-01-26T13:17:47.589Z,55.53
2019-01-26T13:20:16.414Z,43.23
2019-01-26T13:22:44.683Z,47.93
2019-01-26T13:25:17.924Z,34.57
2019-01-26T13:27:46.210Z,35.83
2019-01-26T13:30:16.844Z,34.03
2019-01-26T13:32:46.558Z,38.23
2019-01-26T13:35:14.964Z,38.30
2019-01-26T13:37:43.275Z,28.53
2019-01-26T13:40:20.391Z,34.53
2019-01-26T13:42:48.705Z,31.60
2019-01-26T13:45:17.024Z,27.53
2019-01-26T13:47:45.328Z,32.90
2019-01-26T13:50:13.632Z,34.03
2019-01-26T13:52:41.880Z,34.40
2019-01-26T13:55:15.697Z,30.23
2019-01-26T13:57:43.949Z,35.90
2019-01-26T14:00:18.752Z,27.63
2019-01-26T14:02:47.006Z,28.03
2019-01-26T14:05:15.301Z,34.53
2019-01-26T14:07:43.564Z,32.10
2019-01-26T14:10:15.119Z,32.60
2019-01-26T14:12:43.444Z,31.17
2019-01-26T14:15:13.830Z,34.37
2019-01-26T14:17:42.112Z,33.90
2019-01-26T14:20:24.563Z,31.90
2019-01-26T14:22:53.096Z,23.00
2019-01-26T14:25:21.338Z,34.90
2019-01-26T14:27:50.390Z,27.23
2019-01-26T14:30:30.668Z,35.27
2019-01-26T14:32:58.962Z,27.37
2019-01-26T14:35:27.244Z,32.37
2019-01-26T14:37:55.513Z,33.53
2019-01-26T14:40:23.789Z,27.27
2019-01-26T14:42:54.494Z,31.33
2019-01-26T14:45:22.049Z,21.07
2019-01-26T14:47:50.355Z,20.10
2019-01-26T14:50:19.395Z,32.93
2019-01-26T14:52:47.782Z,29.23
2019-01-26T14:55:25.278Z,30.67
2019-01-26T14:57:53.543Z,32.77
2019-01-26T15:00:24.459Z,22.07
2019-01-26T15:02:52.809Z,27.00
2019-01-26T15:05:21.061Z,28.67
2019-01-26T15:07:49.361Z,24.07
2019-01-26T15:10:17.727Z,26.80
2019-01-26T15:12:45.968Z,29.57
2019-01-26T15:15:16.790Z,24.77
2019-01-26T15:17:45.044Z,36.60
2019-01-26T15:20:16.196Z,28.20
2019-01-26T15:22:44.479Z,32.27
2019-01-26T15:25:12.789Z,33.73
2019-01-26T15:27:41.068Z,45.13
2019-01-26T15:30:18.556Z,32.07
2019-01-26T15:32:46.866Z,36.43
2019-01-26T15:35:15.133Z,29.90
2019-01-26T15:37:43.822Z,42.37
2019-01-26T15:40:13.127Z,39.67
2019-01-26T15:42:41.435Z,34.17
2019-01-26T15:45:13.003Z,39.60
2019-01-26T15:47:41.252Z,43.37
2019-01-26T15:50:13.218Z,34.73
2019-01-26T15:52:42.473Z,36.17
2019-01-26T15:55:19.326Z,41.40
2019-01-26T15:57:47.628Z,40.37
2019-01-26T16:00:22.027Z,62.30
2019-01-26T16:02:50.294Z,51.27
2019-01-26T16:05:18.572Z,47.23
2019-01-26T16:07:46.873Z,44.97
2019-01-26T16:10:21.076Z,43.20
2019-01-26T16:12:49.370Z,39.53
2019-01-26T16:15:20.127Z,40.37
2019-01-26T16:17:48.421Z,40.90
2019-01-26T16:20:20.368Z,45.53
2019-01-26T16:22:48.910Z,37.47
2019-01-26T16:25:17.296Z,54.63
2019-01-26T16:27:45.677Z,32.10
2019-01-26T16:30:22.898Z,37.17
2019-01-26T16:32:51.145Z,34.60
2019-01-26T16:35:19.599Z,35.07
2019-01-26T16:37:47.990Z,32.90
2019-01-26T16:40:25.083Z,28.27
2019-01-26T16:42:53.706Z,29.90
2019-01-26T16:45:27.885Z,39.50
2019-01-26T16:47:56.195Z,30.63
2019-01-26T16:50:27.767Z,34.03
2019-01-26T16:52:56.497Z,30.63
2019-01-26T16:55:24.754Z,33.00
2019-01-26T16:57:53.096Z,28.07
2019-01-26T17:00:30.583Z,32.03
2019-01-26T17:02:58.858Z,28.83
2019-01-26T17:05:27.203Z,23.53
2019-01-26T17:07:55.549Z,21.03
2019-01-26T17:10:23.817Z,18.83
2019-01-26T17:12:52.140Z,18.63
2019-01-26T17:15:20.444Z,22.20
2019-01-26T17:17:48.715Z,16.97
2019-01-26T17:20:20.244Z,15.90
2019-01-26T17:22:48.533Z,14.30
2019-01-26T17:25:16.828Z,12.93
2019-01-26T17:27:45.114Z,13.73
2019-01-26T17:30:16.414Z,13.27
2019-01-26T17:32:44.938Z,18.43
2019-01-26T17:35:13.198Z,19.30
2019-01-26T17:37:41.461Z,11.33
2019-01-26T17:40:13.294Z,11.93
2019-01-26T17:42:41.676Z,13.10
2019-01-26T17:45:11.608Z,13.63
2019-01-26T17:47:39.874Z,16.27
2019-01-26T17:50:11.387Z,18.50
2019-01-26T17:52:40.502Z,10.20
2019-01-26T17:55:11.856Z,11.20
2019-01-26T17:57:40.504Z,8.63
2019-01-26T18:00:19.272Z,14.50
2019-01-26T18:02:47.523Z,12.47
2019-01-26T18:05:15.817Z,13.47
2019-01-26T18:07:44.096Z,16.50
2019-01-26T18:10:15.483Z,11.30
2019-01-26T18:12:43.731Z,13.93
2019-01-26T18:15:14.074Z,12.57
2019-01-26T18:17:44.703Z,13.67
2019-01-26T18:20:16.126Z,19.00
2019-01-26T18:22:44.428Z,15.13
2019-01-26T18:25:12.698Z,24.43
2019-01-26T18:27:40.977Z,21.07
2019-01-26T18:30:13.023Z,25.67
2019-01-26T18:32:41.321Z,21.50
2019-01-26T18:35:13.848Z,23.70
2019-01-26T18:37:42.192Z,29.53
2019-01-26T18:40:13.648Z,23.63
2019-01-26T18:42:41.919Z,23.63
2019-01-26T18:45:19.349Z,35.73
2019-01-26T18:47:47.687Z,46.87
2019-01-26T18:50:18.954Z,34.70
2019-01-26T18:52:47.228Z,39.83
2019-01-26T18:55:15.505Z,61.87
2019-01-26T18:57:43.764Z,46.47
2019-01-26T19:00:15.422Z,90.77
2019-01-26T19:02:43.810Z,51.53
2019-01-26T19:05:15.347Z,70.27
2019-01-26T19:07:43.640Z,45.40
2019-01-26T19:10:13.447Z,32.07
2019-01-26T19:12:41.762Z,50.43
2019-01-26T19:15:13.506Z,48.63
2019-01-26T19:17:41.896Z,44.60
2019-01-26T19:20:12.234Z,39.80
2019-01-26T19:22:40.499Z,35.37
2019-01-26T19:25:12.005Z,50.63
2019-01-26T19:27:40.440Z,41.00
2019-01-26T19:30:12.255Z,46.77
2019-01-26T19:32:40.550Z,53.20
2019-01-26T19:35:10.014Z,40.63
2019-01-26T19:37:38.348Z,45.53
2019-01-26T19:40:12.758Z,41.67
2019-01-26T19:42:41.026Z,32.90
2019-01-26T19:45:12.069Z,33.90
2019-01-26T19:47:40.324Z,38.63
2019-01-26T19:50:12.026Z,39.90
2019-01-26T19:52:40.553Z,44.77
2019-01-26T19:55:08.878Z,44.70
2019-01-26T19:57:37.156Z,56.27
2019-01-26T20:00:08.491Z,66.37
2019-01-26T20:02:36.754Z,45.57
2019-01-26T20:05:08.598Z,35.20
2019-01-26T20:07:37.185Z,49.50
2019-01-26T20:10:09.465Z,33.60
2019-01-26T20:12:40.311Z,42.03
2019-01-26T20:15:14.258Z,37.30
2019-01-26T20:17:44.323Z,103.90
2019-01-26T20:20:18.889Z,102.03
2019-01-26T20:22:48.064Z,118.50
2019-01-26T20:25:16.322Z,95.90
2019-01-26T20:27:44.732Z,61.63
2019-01-26T20:30:24.650Z,84.67
2019-01-26T20:32:52.969Z,76.93
2019-01-26T20:35:21.287Z,69.47
2019-01-26T20:37:49.686Z,208.93
2019-01-26T20:40:18.648Z,140.70
2019-01-26T20:42:46.977Z,88.00
2019-01-26T20:45:20.680Z,63.53
2019-01-26T20:47:48.987Z,104.80
2019-01-26T20:50:18.128Z,117.50
2019-01-26T20:52:46.550Z,76.40
2019-01-26T20:55:14.880Z,68.83
2019-01-26T20:57:43.140Z,57.17
2019-01-26T21:00:29.042Z,58.23
2019-01-26T21:02:57.374Z,64.13
2019-01-26T21:05:25.799Z,51.20
2019-01-26T21:07:54.445Z,49.73
2019-01-26T21:10:25.107Z,57.73
2019-01-26T21:12:53.360Z,72.73
2019-01-26T21:15:21.755Z,75.30
2019-01-26T21:17:50.038Z,63.77
2019-01-26T21:20:20.977Z,57.53
2019-01-26T21:22:49.369Z,50.37
2019-01-26T21:25:17.639Z,64.30
2019-01-26T21:27:45.923Z,46.10
2019-01-26T21:30:19.681Z,38.53
2019-01-26T21:32:47.984Z,38.97
2019-01-26T21:35:16.230Z,41.60
2019-01-26T21:37:44.499Z,42.50
2019-01-26T21:40:21.232Z,33.40
2019-01-26T21:42:49.611Z,33.37
2019-01-26T21:45:18.207Z,33.10
2019-01-26T21:47:46.459Z,34.00
2019-01-26T21:50:19.874Z,27.43
2019-01-26T21:52:48.175Z,29.00
2019-01-26T21:55:16.476Z,23.27
2019-01-26T21:57:44.732Z,29.27
2019-01-26T22:00:15.934Z,29.90
2019-01-26T22:02:44.320Z,25.60
2019-01-26T22:05:12.945Z,27.63
2019-01-26T22:07:41.208Z,23.57
2019-01-26T22:10:15.516Z,31.53
2019-01-26T22:12:43.764Z,28.10
2019-01-26T22:15:17.703Z,30.10
2019-01-26T22:17:46.518Z,21.57
2019-01-26T22:20:17.684Z,25.23
2019-01-26T22:22:46.416Z,23.10
2019-01-26T22:25:14.882Z,26.40
2019-01-26T22:27:43.136Z,25.63
2019-01-26T22:30:14.497Z,25.30
2019-01-26T22:32:42.775Z,25.80
2019-01-26T22:35:11.033Z,26.93
2019-01-26T22:37:39.310Z,25.70
2019-01-26T22:40:10.850Z,24.13
2019-01-26T22:42:39.103Z,19.60
2019-01-26T22:45:10.481Z,23.13
2019-01-26T22:47:38.795Z,20.80
2019-01-26T22:50:16.434Z,20.13
2019-01-26T22:52:44.784Z,26.60
2019-01-26T22:55:15.397Z,19.33
2019-01-26T22:57:43.697Z,21.80
2019-01-26T23:00:55.313Z,19.73
2019-01-26T23:03:42.288Z,23.10
2019-01-26T23:06:30.397Z,18.17
2019-01-26T23:09:01.898Z,17.70
2019-01-26T23:11:53.202Z,18.97
2019-01-26T23:14:42.742Z,21.03
2019-01-26T23:17:14.282Z,15.67
2019-01-26T23:19:51.890Z,16.30
2019-01-26T23:22:49.117Z,16.77
2019-01-26T23:25:23.063Z,16.23
2019-01-26T23:27:54.706Z,16.27
2019-01-26T23:30:28.791Z,14.43
2019-01-26T23:32:57.059Z,16.53
2019-01-26T23:35:25.338Z,13.43
2019-01-26T23:37:53.601Z,15.83
2019-01-26T23:40:21.927Z,16.50
2019-01-26T23:42:50.206Z,14.67
2019-01-26T23:45:18.480Z,17.00
2019-01-26T23:47:46.727Z,16.70
2019-01-26T23:50:15.074Z,16.03
2019-01-26T23:52:43.977Z,14.70
2019-01-26T23:55:12.223Z,14.37
2019-01-26T23:57:40.528Z,13.73
